Renato Xavier

Скаут - Cruzeiro
20 Ноя 2027
Суббота
Продолжить

Характер

Адаптивность (10) Амбиции (3) Скандальность (12) Верность (20) Стрессоустойчивость (12) Профессионализм (3) Благородство (10) Темперамент (12)

Профиль

Стиль управления Демократичный
Лицензия Континентальная B
Решительность 11
Управление людьми 11
Мотивация 5
Дисциплина 10
Удовлетворённость
100%
Усталость
0%
Должность Скаут
Зарплата 76.6K в нед.
Контракт 14.03.2030

Производительность

Поведение Хорошее
Эффективность тренировок
45%
Развитие игроков
45%
Профилактика травм
35%
Тактическая реализация
60%

Недавние события

Участвовал в селекционном совещании только что
Рекомендовал трансферную цель только что
Оценил игрока только что
Участвовал в селекционном совещании 7 дн. назад
Рекомендовал трансферную цель 7 дн. назад
Оценил игрока 7 дн. назад
Оценил игрока 7 дн. назад
Оценил игрока 14 дн. назад

Текущее наблюдение

249
Игрок Клуб Статус Способность Уверенность Наблюдений Последнее наблюдение Последний голос
Lucas Assadi AIK Активный 139 / 139 40% 3 19.11.2027 -
Mateo Silvetti Inter Miami CF Активный 123 / 122 40% 3 19.11.2027 -
Igor Jesus Los Angeles Football Club Активный 133 / 115 40% 3 19.11.2027 -
Erick Marcus Ludogorets Активный 127 / 129 40% 5 18.11.2027 -
Kauê Rodrigues Porto Активный 126 / 119 40% 2 18.11.2027 -
Valentín Moreno Tigre Активный 125 / 119 40% 1 18.11.2027 -
Kevin Fulham Активный 153 / 158 40% 3 17.11.2027 -
Ramiro Hernandes Belgrano Активный 121 / 126 40% 2 17.11.2027 -
Maximiliano Meléndez Chacarita Juniors Активный 116 / 121 40% 4 11.11.2027 -
Agustín Hausch Caracas Активный 122 / 125 40% 2 11.11.2027 -
Marlon Gomes Bahia Активный 141 / 135 40% 2 11.11.2027 -
Quinn Sullivan Philadelphia Union Активный 118 / 119 40% 4 09.11.2027 -
Noel Buck San Jose Earthquakes Активный 110 / 130 40% 2 09.11.2027 -
Wesley Al-Nassr Активный 119 / 121 40% 3 09.11.2027 -
Patricio Moyano Defensores Активный 125 / 115 40% 7 06.11.2027 -
Alex Luna Instituto Активный 131 / 130 40% 5 02.11.2027 -
Carlos Caicedo La Equidad Активный 119 / 120 40% 3 02.11.2027 -
Iñaki Larthirigoyen San Telmo Активный 114 / 119 40% 2 02.11.2027 -
Victor Lind Hammarby Активный 128 / 123 40% 2 31.10.2027 -
Franco González Penarol Активный 118 / 121 40% 4 29.10.2027 -
Telasco Segovia Inter Miami CF Активный 137 / 138 40% 2 28.10.2027 -
Kelvin Flórez Junior Активный 111 / 123 40% 1 28.10.2027 -
Lucas Agazzi Defensor Sporting Активный 115 / 126 40% 3 27.10.2027 -
Samuel Lucero Defensa y Justicia Активный 119 / 118 40% 2 27.10.2027 -
Paxten Aaronson Colorado Rapids Активный 128 / 143 40% 3 25.10.2027 -
Amin Boudri Los Angeles Football Club Активный 128 / 130 40% 3 24.10.2027 -
Tomás Silva Platense Активный 121 / 122 40% 1 24.10.2027 -
Idan Toklomati Los Angeles Football Club Активный 112 / 115 40% 2 20.10.2027 -
Tobías Leiva Estudiantes Активный 113 / 118 40% 1 19.10.2027 -
Gustavo Neves Bragantino Активный 130 / 130 40% 2 17.10.2027 -
Federico Pérez Agropecuario Argentino Активный 116 / 115 40% 1 17.10.2027 -
Ramiro Peralta Juventud Активный 121 / 118 40% 2 16.10.2027 -
Bénie Traoré New York City Активный 125 / 129 40% 1 14.10.2027 -
Allan Oxford United Активный 141 / 137 40% 1 13.10.2027 -
Jahkeele Marshall-Rutty New York Red Bulls Активный 132 / 122 40% 1 12.10.2027 -
Julián Contrera Newell's Old Boys Активный 122 / 123 40% 2 11.10.2027 -
Diogo Guzmán Montevideo City Torque Активный 118 / 122 40% 2 08.10.2027 -
Tomás Porra Barracas Central Активный 110 / 117 40% 2 08.10.2027 -
Rodrigo Chagas Juventud Активный 118 / 117 40% 5 07.10.2027 -
Santiago González Tigre Активный 134 / 133 40% 1 07.10.2027 -
Agustín Giay Palmeiras Активный 142 / 139 40% 1 04.10.2027 -
Breno Bidon Corinthians Активный 122 / 129 40% 3 29.09.2027 -
Joaquín Gho Argentinos Juniors Активный 133 / 125 40% 1 29.09.2027 -
Rodriguinho São Paulo Активный 128 / 126 40% 1 29.09.2027 -
Cauan Barros Vasco da Gama Активный 124 / 134 40% 1 28.09.2027 -
Ahmed Qasem Nashville SC Активный 114 / 116 40% 1 21.09.2027 -
Elías Báez Atlanta United FC Активный 126 / 129 40% 3 12.09.2027 -
Mauricio Amaro Atlanta United FC Активный 138 / 134 40% 1 12.09.2027 -
Nicolás Azambuja Danubio Активный 125 / 131 40% 1 11.09.2027 -
Emiliano Viveros Gimnasia La Plata Активный 126 / 118 40% 1 07.09.2027 -
Lautaro Martínez Inter Активный 173 / 168 40% 1 21.06.2027 -
Mohamed-Ali Cho Hull City Активный 125 / 137 40% 1 21.06.2027 -
Viktor Johansson Stoke City Активный 147 / 142 40% 1 31.05.2027 -
Taye Ashby-Hammond Cheltenham Town Активный 99 / 101 40% 1 31.05.2027 -
Emile Smith Rowe Fulham Активный 144 / 157 40% 2 29.05.2027 -
Dodo Fiorentina Активный 138 / 144 40% 1 29.05.2027 -
Koki Saito Queens Park Rangers Активный 117 / 131 40% 1 29.05.2027 -
André Wolverhampton Активный 141 / 144 40% 5 28.05.2027 -
Luís Henrique Inter Активный 138 / 140 40% 7 27.05.2027 -
John McGinn Aston Villa Активный 149 / 150 40% 2 27.05.2027 -
Julio Enciso Ipswich Town Активный 146 / 148 40% 5 26.05.2027 -
Loum Tchaouna Coventry City Активный 138 / 139 40% 4 26.05.2027 -
Thiago Almada Fiorentina Активный 158 / 149 40% 4 25.05.2027 -
Matías Soulé AS Roma Активный 146 / 163 40% 1 25.05.2027 -
Jacob Ramsey Newcastle United Активный 163 / 146 40% 1 25.05.2027 -
Zian Flemming Ipswich Town Активный 140 / 132 40% 1 23.05.2027 -
Welington Southampton Активный 125 / 130 40% 1 23.05.2027 -
Demarai Gray Birmingham Активный 129 / 126 40% 2 22.05.2027 -
Bitello Empoli Активный 128 / 133 40% 4 21.05.2027 -
Brennan Johnson Everton Активный 157 / 145 40% 5 21.05.2027 -
Solly March Brighton Активный 143 / 144 40% 3 20.05.2027 -
Marquinhos Spartak Moscow Активный 132 / 135 40% 2 20.05.2027 -
Khvicha Kvaratskhelia Inter Активный 181 / 166 40% 1 19.05.2027 -
Kiernan Dewsbury-Hall Everton Активный 154 / 142 40% 1 19.05.2027 -
Kevin Schade Brentford Активный 143 / 156 40% 3 18.05.2027 -
Enzo Barrenechea Burnley Активный 140 / 143 40% 2 18.05.2027 -
Jack McGlynn Stoke City Активный 137 / 140 40% 2 17.05.2027 -
Yankuba Minteh Brighton Активный 141 / 154 40% 3 17.05.2027 -
Max Johnston Derby County Активный 131 / 132 40% 1 17.05.2027 -
Marcus Edwards Burnley Активный 136 / 138 40% 1 16.05.2027 -
Ismaïla Sarr Crystal Palace Активный 164 / 144 40% 2 15.05.2027 -
Charles De Ketelaere Atalanta Активный 147 / 153 40% 2 13.05.2027 -
Adrien Truffert Bournemouth Активный 154 / 150 40% 1 13.05.2027 -
Igor Burnley Активный 138 / 136 40% 2 12.05.2027 -
Matt O'Riley Brighton Активный 141 / 150 40% 1 10.05.2027 -
Relebohile Mofokeng Orlando Pirates Активный 131 / 120 40% 2 09.05.2027 -
Cian Ashford Cardiff City Активный 113 / 118 40% 2 09.05.2027 -
Dale Taylor Blackpool Активный 106 / 116 40% 1 08.05.2027 -
Mduduzi Shabalala Kaizer Chiefs Активный 108 / 117 40% 3 07.05.2027 -
Max Conway Bolton Wanderers Активный 112 / 125 40% 2 07.05.2027 -
Abu Kamara Portsmouth Активный 122 / 119 40% 2 07.05.2027 -
Quinten Timber Crystal Palace Активный 158 / 145 40% 2 06.05.2027 -
Tino Livramento Newcastle United Активный 158 / 160 40% 1 06.05.2027 -
Dango Ouattara Brentford Активный 148 / 145 40% 1 06.05.2027 -
Max O'Leary West Bromwich Albion Активный 117 / 131 40% 1 04.05.2027 -
Joel Pereira Reading Активный 102 / 117 40% 1 04.05.2027 -
Joe Lumley Sheffield Wednesday Активный 116 / 111 40% 1 04.05.2027 -
David Neres Napoli Активный 167 / 151 40% 1 03.05.2027 -
Finn Azaz Southampton Активный 136 / 129 40% 1 03.05.2027 -
Carlos Augusto Inter Активный 158 / 157 40% 1 02.05.2027 -
Yehor Yarmoliuk Brentford Активный 145 / 148 40% 2 30.04.2027 -
Edoardo Bove Watford Активный 120 / 138 40% 1 30.04.2027 -
Lewis Hall Newcastle United Активный 147 / 157 40% 1 30.04.2027 -
Romano Schmid Frosinone Активный 140 / 144 40% 2 24.04.2027 -
Chemsdine Talbi Sunderland Активный 131 / 151 40% 1 24.04.2027 -
Léo Scienza Southampton Активный 125 / 143 40% 2 23.04.2027 -
Savinho Tottenham Активный 163 / 153 40% 1 19.04.2027 -
Amadou Onana Newcastle United Активный 147 / 160 40% 1 19.04.2027 -
Samuel Lino Flamengo Активный 150 / 138 40% 6 15.04.2027 -
Álex Valle Como Активный 137 / 133 40% 2 14.04.2027 -
Roger François Udinese Активный 151 / 140 40% 2 14.04.2027 -
Malcom Al Jazira Активный 163 / 145 40% 2 14.04.2027 -
Juan Ignacio Nardoni Grêmio Активный 139 / 131 40% 1 14.04.2027 -
Zeidane Inoussa Swansea City Активный 117 / 119 40% 1 13.04.2027 -
Manor Solomon West Ham United Активный 134 / 141 40% 2 11.04.2027 -
Wilfried Singo Galatasaray Активный 136 / 134 40% 1 11.04.2027 -
Lucas Da Cunha Como Активный 147 / 138 40% 1 11.04.2027 -
Pablo Solari Spartak Moscow Активный 142 / 124 40% 1 09.04.2027 -
Fábio Carvalho Brentford Активный 128 / 132 40% 1 07.04.2027 -
Enzo Le Fée Sunderland Активный 145 / 143 40% 3 06.04.2027 -
Eduard Spertsyan Al-Ahli Активный 136 / 134 40% 3 06.04.2027 -
Tim Iroegbunam Hull City Активный 145 / 138 40% 1 06.04.2027 -
Aaron Hickey Brentford Активный 132 / 149 40% 1 06.04.2027 -
Kellen Fisher Norwich City Активный 131 / 122 40% 1 03.04.2027 -
Serginho Al Wasl Активный 134 / 126 40% 1 02.04.2027 -
Danilo Botafogo Активный 148 / 139 40% 2 01.04.2027 -
Félix Lemaréchal Club Brugge Активный 141 / 135 40% 1 01.04.2027 -
Roberto Fernández Braga Активный 132 / 142 40% 3 31.03.2027 -
Christian Krasnodar Активный 149 / 133 40% 2 31.03.2027 -
Enzo Loiodice KAA Gent Активный 142 / 125 40% 1 31.03.2027 -
Pau Víctor Estrela da Amadora Активный 138 / 132 40% 6 30.03.2027 -
Pedro Henrique Shakhtar Активный 147 / 137 40% 4 28.03.2027 -
Iván Fresneda Sporting CP Активный 140 / 137 40% 5 28.03.2027 -
Matheus Gonçalves Al-Ahli Активный 115 / 134 40% 1 28.03.2027 -
Lorougnon Gohi Académico de Viseu Активный 111 / 110 40% 2 27.03.2027 -
João Palhinha Benfica Активный 145 / 154 40% 2 27.03.2027 -
Yanis Begraoui Estoril Praia Активный 140 / 134 40% 2 27.03.2027 -
Nuno Santos Sporting CP Активный 143 / 143 40% 1 27.03.2027 -
Victor Froholdt Porto Активный 139 / 153 40% 3 25.03.2027 -
Yuri Alberto Corinthians Активный 137 / 141 40% 2 25.03.2027 -
Mario Dorgeles Braga Активный 125 / 129 40% 4 23.03.2027 -
Gianluca Prestianni Benfica Активный 133 / 143 40% 3 22.03.2027 -
Joe Gelhardt Hull City Активный 137 / 133 40% 1 22.03.2027 -
Diogo Spencer Alverca Активный 121 / 112 40% 1 22.03.2027 -
Shea Charles Southampton Активный 136 / 136 40% 1 22.03.2027 -
Toni Tamarit Alverca Активный 115 / 124 40% 4 21.03.2027 -
Bright Arrey-Mbi Braga Активный 145 / 136 40% 2 21.03.2027 -
Pedro Bondo Famalicao Активный 124 / 120 40% 1 21.03.2027 -
João Valido Chaves Активный 121 / 114 40% 1 21.03.2027 -
Cláudio Ramos Porto Активный 130 / 126 40% 1 21.03.2027 -
Ederson Fenerbahce Активный 168 / 155 40% 1 21.03.2027 -
William Gomes Porto Активный 134 / 153 40% 7 19.03.2027 -
Gerónimo Rivera Al Wahda Активный 128 / 131 40% 1 19.03.2027 -
Amine Adli Bournemouth Активный 134 / 149 40% 3 14.03.2027 -
Noah Okafor Leeds United Активный 142 / 136 40% 1 13.03.2027 -
Arthur Beroe Активный 105 / 117 40% 1 11.03.2027 -
Patrick Sequeira Casa Pia Активный 132 / 125 40% 1 11.03.2027 -
Juan Bezerra Zamalek Активный 126 / 118 40% 2 10.03.2027 -
Beni Mukendi Vitoria Guimaraes Активный 115 / 128 40% 3 08.03.2027 -
Lohann Doucet Vitoria Guimaraes Активный 128 / 123 40% 2 08.03.2027 -
Samuel Portugal Gil Vicente Активный 114 / 116 40% 1 08.03.2027 -
Lazar Carević Famalicao Активный 125 / 139 40% 1 08.03.2027 -
Talles Costa Adana Demirspor Активный 113 / 114 40% 1 08.03.2027 -
Aimé Omgba KAA Gent Активный 113 / 124 40% 1 02.03.2027 -
John Victor Nottingham Forest Активный 122 / 133 40% 1 02.03.2027 -
Vinicinho Bragantino Активный 136 / 123 40% 4 27.02.2027 -
Tom Fellows Southampton Активный 120 / 138 40% 1 27.02.2027 -
James McAtee Nottingham Forest Активный 150 / 146 40% 1 26.02.2027 -
Louie Barry Sheffield Wednesday Активный 111 / 120 40% 1 24.02.2027 -
João Simões Sporting CP Активный 117 / 134 40% 1 23.02.2027 -
Korede Osundina Casa Pia Активный 117 / 119 40% 1 23.02.2027 -
Taichi Fukui Arouca Активный 130 / 134 40% 3 17.02.2027 -
Tony Strata Vitoria Guimaraes Активный 133 / 120 40% 3 17.02.2027 -
Robert FC Copenhagen Активный 139 / 131 40% 4 14.02.2027 -
Geny Sporting CP Активный 133 / 141 40% 1 13.02.2027 -
Nazar Voloshyn Dynamo Kyiv Активный 142 / 128 40% 2 11.02.2027 -
Hélio Varela Maccabi Tel Aviv Активный 115 / 118 40% 1 11.02.2027 -
Mathias De Amorim Famalicao Активный 119 / 128 40% 2 10.02.2027 -
Martín Tejón Maritimo Активный 113 / 116 40% 1 10.02.2027 -
Samuel Dahl Benfica Активный 123 / 141 40% 2 07.02.2027 -
Rodrigo Pinheiro Famalicao Активный 138 / 134 40% 2 06.02.2027 -
Finn van Breemen Famalicao Активный 128 / 120 40% 1 02.02.2027 -
Luiz Araújo Flamengo Активный 137 / 128 62% 1 14.12.2026 За
André Clovis Chaves Активный 128 / 124 40% 2 29.11.2026 -
Figueiredo Alverca Активный 115 / 125 40% 3 26.11.2026 -
Rodrigo Ramos Feirense Активный 103 / 118 40% 2 26.11.2026 -
Jonas Wind Braga Активный 126 / 129 40% 1 26.11.2026 -
Leandro Antonetti Estrela da Amadora Активный 101 / 98 40% 1 24.11.2026 -
Gabriel Barbosa Farense Активный 96 / 114 40% 1 24.11.2026 -
Dilan Godoy Vélez Активный 118 / 120 40% 1 23.11.2026 -
Kaio Eduardo Basel Активный 104 / 120 40% 1 23.11.2026 -
Juninho Pumas UNAM Активный 141 / 124 40% 1 21.11.2026 -
Juan Muñoz Leiria Активный 112 / 116 40% 1 21.11.2026 -
Talles Magno New York City Активный 145 / 130 40% 6 19.11.2026 -
Tiziano Dornell Almagro Активный 121 / 115 40% 2 19.11.2026 -
Deivid Washington RC Strasbourg Активный 116 / 117 40% 2 19.11.2026 -
João Paulo Crawley Town Активный 106 / 92 40% 2 13.11.2026 -
Patrick Preciado Deportivo Pasto Активный 108 / 106 40% 3 12.11.2026 -
Camilo Durán Bloemfontein Celtic Активный 130 / 121 40% 1 08.11.2026 -
Emersonn Ipswich Town Активный 113 / 122 40% 1 06.11.2026 -
Guilherme Houston Dynamo Активный 113 / 131 40% 2 05.11.2026 -
Claudio Spinelli Vasco da Gama Активный 134 / 130 40% 1 03.11.2026 -
Juan Turletti Gimnasia y Tiro Активный 85 / 94 40% 1 03.11.2026 -
Bryan Limbombe Maritimo Активный 99 / 111 40% 1 30.10.2026 -
Gabriel Novaes Leixões Активный 110 / 106 40% 1 30.10.2026 -
Pedro Flamengo Активный 142 / 144 40% 1 30.10.2026 -
André Luiz Sporting Kansas City Активный 116 / 131 40% 2 27.10.2026 -
Archie Goodwin Charlotte Football Club Активный 103 / 110 40% 1 27.10.2026 -
Gabriel Silva Braga Активный 129 / 126 40% 3 25.10.2026 -
Markus Jensen Nacional Активный 94 / 103 40% 1 25.10.2026 -
Mauro Júnior PSV Активный 150 / 137 40% 1 24.10.2026 -
Vitinho Internacional Активный 129 / 130 40% 2 20.10.2026 -
Guilherme Neiva AVS Активный 108 / 101 40% 1 20.10.2026 -
Gustavo Silva Vitoria Guimaraes Активный 138 / 129 40% 3 19.10.2026 -
Zé Leite Moreirense Активный 119 / 122 40% 1 17.10.2026 -
Mathys Tel Stade Rennais Активный 144 / 149 40% 1 16.10.2026 -
Alan Lescano Argentinos Juniors Активный 130 / 132 40% 1 16.10.2026 -
Henry Mosquera Bragantino Активный 125 / 130 40% 1 14.10.2026 -
Heorhii Sudakov Benfica Активный 137 / 142 40% 2 11.10.2026 -
Luis Quintero Torreense Активный 132 / 129 40% 4 11.10.2026 -
Stefanos Tzimas Brighton Активный 130 / 138 40% 1 10.10.2026 -
Vanderson Monaco Активный 139 / 142 40% 1 09.10.2026 -
Vasco Sousa Porto Активный 130 / 129 40% 1 07.10.2026 -
Enzo Avaro Mitre Активный 105 / 107 40% 1 06.10.2026 -
Wesley AS Roma Активный 139 / 141 40% 2 05.10.2026 -
João Gomes Aston Villa Активный 139 / 142 40% 1 02.10.2026 -
Sergi Altimira Sporting CP Активный 124 / 137 40% 1 02.10.2026 -
Gabriel Veron Porto Активный 127 / 120 40% 4 30.09.2026 -
Alfonso Trezza Arouca Активный 130 / 129 40% 1 30.09.2026 -
Florentino Luís Ipswich Town Активный 150 / 141 40% 1 27.09.2026 -
Luis Suárez PSV Активный 152 / 147 40% 2 25.09.2026 -
Rodrigo Muniz Fulham Активный 134 / 132 40% 2 23.09.2026 -
Eduardo Sasha Bragantino Активный 133 / 134 40% 1 23.09.2026 -
Alan Varela Porto Активный 150 / 139 40% 1 20.09.2026 -
Kahiser Lenis Feirense Активный 113 / 121 40% 1 14.09.2026 -
Neymar Santos Активный 143 / 147 40% 1 13.09.2026 -
Arthur Cabral Botafogo Активный 122 / 128 40% 1 10.09.2026 -
Matheus França Crystal Palace Активный 105 / 130 40% 1 31.08.2026 -
João Klauss LA Galaxy Активный 114 / 121 40% 1 31.08.2026 -
Felipe Vizeu Sporting Cristal Активный 118 / 122 40% 1 31.08.2026 -
Antony Portland Timbers Активный 115 / 123 40% 3 27.08.2026 -
Matheus Dias Nacional Активный 109 / 128 40% 1 27.08.2026 -
Sindre Walle Egeli Nottingham Forest Активный 128 / 131 40% 1 27.08.2026 -
Oumar Camara Vitoria Guimaraes Активный 119 / 122 40% 1 18.08.2026 -
Rafael Navarro St. Louis CITY SC Активный 131 / 125 40% 1 12.08.2026 -
Léo Jacó Santa Clara Активный 83 / 97 40% 1 11.08.2026 -
Gabriel Pirani San Diego Football Club Активный 126 / 132 40% 1 07.08.2026 -
Léo Bonatini Rio Ave Активный 117 / 119 40% 1 06.08.2026 -
Léo Baptistão Almería Активный 135 / 135 40% 1 02.08.2026 -